sensor_id;sensor_type;location;lat;lon;timestamp;P1;durP1;ratioP1;P2;durP2;ratioP2
57225;SDS011;43082;43.568;22.256;2022-11-21T00:01:11;10.57;;;6.03;;
57225;SDS011;43082;43.568;22.256;2022-11-21T00:03:55;15.95;;;11.25;;
57225;SDS011;43082;43.568;22.256;2022-11-21T00:06:20;16.25;;;10.77;;
57225;SDS011;43082;43.568;22.256;2022-11-21T00:08:47;21.50;;;14.65;;
57225;SDS011;43082;43.568;22.256;2022-11-21T00:11:13;13.45;;;8.40;;
57225;SDS011;43082;43.568;22.256;2022-11-21T00:13:38;16.85;;;10.68;;
57225;SDS011;43082;43.568;22.256;2022-11-21T00:16:05;23.30;;;15.00;;
57225;SDS011;43082;43.568;22.256;2022-11-21T00:18:32;22.80;;;13.55;;
57225;SDS011;43082;43.568;22.256;2022-11-21T00:21:02;18.23;;;10.73;;
57225;SDS011;43082;43.568;22.256;2022-11-21T00:23:46;17.75;;;11.02;;
57225;SDS011;43082;43.568;22.256;2022-11-21T00:26:12;19.83;;;12.23;;
57225;SDS011;43082;43.568;22.256;2022-11-21T00:28:38;17.48;;;11.23;;
57225;SDS011;43082;43.568;22.256;2022-11-21T00:31:04;29.38;;;19.45;;
57225;SDS011;43082;43.568;22.256;2022-11-21T00:33:30;22.02;;;13.55;;
57225;SDS011;43082;43.568;22.256;2022-11-21T00:35:56;27.77;;;16.83;;
57225;SDS011;43082;43.568;22.256;2022-11-21T00:38:21;33.05;;;21.98;;
57225;SDS011;43082;43.568;22.256;2022-11-21T00:40:48;26.73;;;18.10;;
57225;SDS011;43082;43.568;22.256;2022-11-21T00:43:14;18.08;;;11.13;;
57225;SDS011;43082;43.568;22.256;2022-11-21T00:45:39;12.35;;;6.88;;
57225;SDS011;43082;43.568;22.256;2022-11-21T00:48:05;9.73;;;4.80;;
57225;SDS011;43082;43.568;22.256;2022-11-21T00:50:30;10.40;;;5.85;;
57225;SDS011;43082;43.568;22.256;2022-11-21T00:52:56;9.10;;;4.80;;
57225;SDS011;43082;43.568;22.256;2022-11-21T00:55:22;7.95;;;3.08;;
57225;SDS011;43082;43.568;22.256;2022-11-21T00:57:48;8.90;;;4.00;;
57225;SDS011;43082;43.568;22.256;2022-11-21T01:00:13;8.30;;;4.45;;
57225;SDS011;43082;43.568;22.256;2022-11-21T01:02:39;12.50;;;5.53;;
57225;SDS011;43082;43.568;22.256;2022-11-21T01:05:05;9.07;;;4.50;;
57225;SDS011;43082;43.568;22.256;2022-11-21T01:07:31;11.65;;;6.32;;
57225;SDS011;43082;43.568;22.256;2022-11-21T01:09:56;7.65;;;3.20;;
57225;SDS011;43082;43.568;22.256;2022-11-21T01:12:22;7.00;;;2.47;;
57225;SDS011;43082;43.568;22.256;2022-11-21T01:14:48;7.18;;;2.22;;
57225;SDS011;43082;43.568;22.256;2022-11-21T01:17:13;6.70;;;2.50;;
57225;SDS011;43082;43.568;22.256;2022-11-21T01:19:39;5.70;;;2.20;;
57225;SDS011;43082;43.568;22.256;2022-11-21T01:22:04;5.57;;;1.83;;
57225;SDS011;43082;43.568;22.256;2022-11-21T01:24:30;6.22;;;2.35;;
57225;SDS011;43082;43.568;22.256;2022-11-21T01:26:55;5.88;;;1.77;;
57225;SDS011;43082;43.568;22.256;2022-11-21T01:29:21;5.18;;;1.92;;
57225;SDS011;43082;43.568;22.256;2022-11-21T01:31:46;6.53;;;2.40;;
57225;SDS011;43082;43.568;22.256;2022-11-21T01:34:12;5.47;;;1.73;;
57225;SDS011;43082;43.568;22.256;2022-11-21T01:36:39;5.15;;;1.60;;
57225;SDS011;43082;43.568;22.256;2022-11-21T01:39:05;3.88;;;1.08;;
57225;SDS011;43082;43.568;22.256;2022-11-21T01:41:32;4.25;;;1.30;;
57225;SDS011;43082;43.568;22.256;2022-11-21T01:44:00;5.15;;;1.70;;
57225;SDS011;43082;43.568;22.256;2022-11-21T01:46:26;6.15;;;2.25;;
57225;SDS011;43082;43.568;22.256;2022-11-21T01:56:38;5.68;;;1.98;;
57225;SDS011;43082;43.568;22.256;2022-11-21T01:59:06;6.97;;;2.50;;
57225;SDS011;43082;43.568;22.256;2022-11-21T02:01:33;6.10;;;2.53;;
57225;SDS011;43082;43.568;22.256;2022-11-21T02:03:59;7.30;;;2.47;;
57225;SDS011;43082;43.568;22.256;2022-11-21T02:06:27;7.35;;;2.60;;
57225;SDS011;43082;43.568;22.256;2022-11-21T02:08:53;7.07;;;2.58;;
57225;SDS011;43082;43.568;22.256;2022-11-21T02:13:53;6.10;;;1.88;;
57225;SDS011;43082;43.568;22.256;2022-11-21T02:16:18;5.97;;;2.15;;
57225;SDS011;43082;43.568;22.256;2022-11-21T02:18:44;6.82;;;2.55;;
57225;SDS011;43082;43.568;22.256;2022-11-21T02:21:17;7.45;;;3.10;;
57225;SDS011;43082;43.568;22.256;2022-11-21T02:24:11;9.43;;;4.10;;
57225;SDS011;43082;43.568;22.256;2022-11-21T02:26:41;8.75;;;4.10;;
57225;SDS011;43082;43.568;22.256;2022-11-21T02:29:07;7.70;;;3.15;;
57225;SDS011;43082;43.568;22.256;2022-11-21T02:31:32;9.15;;;4.85;;
57225;SDS011;43082;43.568;22.256;2022-11-21T02:33:57;6.82;;;3.40;;
57225;SDS011;43082;43.568;22.256;2022-11-21T02:36:42;7.63;;;3.05;;
57225;SDS011;43082;43.568;22.256;2022-11-21T02:39:12;6.25;;;2.10;;
57225;SDS011;43082;43.568;22.256;2022-11-21T02:41:42;5.45;;;1.88;;
57225;SDS011;43082;43.568;22.256;2022-11-21T02:44:32;6.25;;;2.70;;
57225;SDS011;43082;43.568;22.256;2022-11-21T02:47:02;6.53;;;2.50;;
57225;SDS011;43082;43.568;22.256;2022-11-21T02:49:36;6.60;;;2.22;;
57225;SDS011;43082;43.568;22.256;2022-11-21T02:52:05;5.80;;;2.15;;
57225;SDS011;43082;43.568;22.256;2022-11-21T02:54:30;6.18;;;2.40;;
57225;SDS011;43082;43.568;22.256;2022-11-21T02:56:55;6.00;;;2.47;;
57225;SDS011;43082;43.568;22.256;2022-11-21T02:59:21;6.13;;;2.33;;
57225;SDS011;43082;43.568;22.256;2022-11-21T03:01:47;6.50;;;2.75;;
57225;SDS011;43082;43.568;22.256;2022-11-21T03:04:13;6.53;;;2.67;;
57225;SDS011;43082;43.568;22.256;2022-11-21T03:06:38;7.88;;;4.03;;
57225;SDS011;43082;43.568;22.256;2022-11-21T03:09:03;7.90;;;3.80;;
57225;SDS011;43082;43.568;22.256;2022-11-21T03:11:29;9.13;;;4.15;;
57225;SDS011;43082;43.568;22.256;2022-11-21T03:13:54;8.13;;;3.53;;
57225;SDS011;43082;43.568;22.256;2022-11-21T03:16:20;8.13;;;3.80;;
57225;SDS011;43082;43.568;22.256;2022-11-21T03:18:45;8.07;;;3.88;;
57225;SDS011;43082;43.568;22.256;2022-11-21T03:21:11;7.57;;;3.50;;
57225;SDS011;43082;43.568;22.256;2022-11-21T03:23:36;7.57;;;3.40;;
57225;SDS011;43082;43.568;22.256;2022-11-21T03:26:01;6.70;;;2.90;;
57225;SDS011;43082;43.568;22.256;2022-11-21T03:28:27;6.88;;;2.78;;
57225;SDS011;43082;43.568;22.256;2022-11-21T03:30:52;6.68;;;3.03;;
57225;SDS011;43082;43.568;22.256;2022-11-21T03:33:18;10.15;;;4.20;;
57225;SDS011;43082;43.568;22.256;2022-11-21T03:35:43;5.07;;;2.00;;
57225;SDS011;43082;43.568;22.256;2022-11-21T03:38:08;9.65;;;3.90;;
57225;SDS011;43082;43.568;22.256;2022-11-21T03:40:34;6.57;;;2.90;;
57225;SDS011;43082;43.568;22.256;2022-11-21T03:43:03;9.68;;;4.53;;
57225;SDS011;43082;43.568;22.256;2022-11-21T03:45:30;9.25;;;4.90;;
57225;SDS011;43082;43.568;22.256;2022-11-21T03:47:55;9.52;;;4.55;;
57225;SDS011;43082;43.568;22.256;2022-11-21T03:50:21;7.25;;;3.17;;
57225;SDS011;43082;43.568;22.256;2022-11-21T03:52:46;8.20;;;2.50;;
57225;SDS011;43082;43.568;22.256;2022-11-21T03:55:11;6.55;;;2.67;;
57225;SDS011;43082;43.568;22.256;2022-11-21T03:57:37;5.43;;;2.30;;
57225;SDS011;43082;43.568;22.256;2022-11-21T04:00:03;5.50;;;1.98;;
57225;SDS011;43082;43.568;22.256;2022-11-21T04:02:29;6.03;;;2.03;;
57225;SDS011;43082;43.568;22.256;2022-11-21T04:04:54;3.35;;;0.85;;
57225;SDS011;43082;43.568;22.256;2022-11-21T04:07:19;4.07;;;1.30;;
57225;SDS011;43082;43.568;22.256;2022-11-21T04:09:45;4.07;;;1.40;;
57225;SDS011;43082;43.568;22.256;2022-11-21T04:12:10;4.32;;;1.63;;
57225;SDS011;43082;43.568;22.256;2022-11-21T04:14:36;6.30;;;1.60;;
57225;SDS011;43082;43.568;22.256;2022-11-21T04:17:01;6.28;;;2.80;;
57225;SDS011;43082;43.568;22.256;2022-11-21T04:19:27;10.27;;;4.72;;
57225;SDS011;43082;43.568;22.256;2022-11-21T04:21:52;8.73;;;4.00;;
57225;SDS011;43082;43.568;22.256;2022-11-21T04:24:18;8.50;;;4.53;;
57225;SDS011;43082;43.568;22.256;2022-11-21T04:26:43;7.05;;;3.45;;
57225;SDS011;43082;43.568;22.256;2022-11-21T04:29:08;6.88;;;3.50;;
57225;SDS011;43082;43.568;22.256;2022-11-21T04:31:34;4.93;;;2.00;;
57225;SDS011;43082;43.568;22.256;2022-11-21T04:33:59;5.28;;;1.77;;
57225;SDS011;43082;43.568;22.256;2022-11-21T04:36:25;3.45;;;1.17;;
57225;SDS011;43082;43.568;22.256;2022-11-21T04:38:50;4.40;;;1.52;;
57225;SDS011;43082;43.568;22.256;2022-11-21T04:41:16;4.40;;;1.45;;
57225;SDS011;43082;43.568;22.256;2022-11-21T04:43:41;4.78;;;1.42;;
57225;SDS011;43082;43.568;22.256;2022-11-21T04:46:06;4.07;;;1.17;;
57225;SDS011;43082;43.568;22.256;2022-11-21T04:48:32;4.32;;;1.20;;
57225;SDS011;43082;43.568;22.256;2022-11-21T04:50:57;4.30;;;1.20;;
57225;SDS011;43082;43.568;22.256;2022-11-21T04:53:23;5.90;;;2.10;;
57225;SDS011;43082;43.568;22.256;2022-11-21T04:55:48;6.50;;;2.08;;
57225;SDS011;43082;43.568;22.256;2022-11-21T04:58:14;4.82;;;1.60;;
57225;SDS011;43082;43.568;22.256;2022-11-21T05:00:39;6.32;;;2.10;;
57225;SDS011;43082;43.568;22.256;2022-11-21T05:03:05;5.55;;;1.83;;
57225;SDS011;43082;43.568;22.256;2022-11-21T05:05:31;8.13;;;2.35;;
57225;SDS011;43082;43.568;22.256;2022-11-21T05:07:57;5.03;;;1.83;;
57225;SDS011;43082;43.568;22.256;2022-11-21T05:10:23;6.63;;;2.72;;
57225;SDS011;43082;43.568;22.256;2022-11-21T05:12:54;7.80;;;2.80;;
57225;SDS011;43082;43.568;22.256;2022-11-21T05:15:39;8.85;;;2.60;;
57225;SDS011;43082;43.568;22.256;2022-11-21T05:18:05;7.10;;;2.80;;
57225;SDS011;43082;43.568;22.256;2022-11-21T05:20:30;8.77;;;3.05;;
57225;SDS011;43082;43.568;22.256;2022-11-21T05:22:56;7.78;;;2.10;;
57225;SDS011;43082;43.568;22.256;2022-11-21T05:25:21;7.30;;;2.35;;
57225;SDS011;43082;43.568;22.256;2022-11-21T05:27:46;5.43;;;1.73;;
57225;SDS011;43082;43.568;22.256;2022-11-21T05:30:12;7.75;;;2.85;;
57225;SDS011;43082;43.568;22.256;2022-11-21T05:32:38;8.15;;;3.67;;
57225;SDS011;43082;43.568;22.256;2022-11-21T05:35:03;6.82;;;2.83;;
57225;SDS011;43082;43.568;22.256;2022-11-21T05:37:29;13.30;;;7.18;;
57225;SDS011;43082;43.568;22.256;2022-11-21T05:39:54;8.77;;;3.08;;
57225;SDS011;43082;43.568;22.256;2022-11-21T05:42:20;20.08;;;12.38;;
57225;SDS011;43082;43.568;22.256;2022-11-21T05:47:30;9.50;;;4.20;;
57225;SDS011;43082;43.568;22.256;2022-11-21T05:49:56;9.68;;;4.90;;
57225;SDS011;43082;43.568;22.256;2022-11-21T05:52:21;9.32;;;4.70;;
57225;SDS011;43082;43.568;22.256;2022-11-21T05:54:47;7.95;;;3.25;;
57225;SDS011;43082;43.568;22.256;2022-11-21T05:57:12;7.55;;;3.38;;
57225;SDS011;43082;43.568;22.256;2022-11-21T05:59:38;6.32;;;2.70;;
57225;SDS011;43082;43.568;22.256;2022-11-21T06:02:03;6.47;;;2.78;;
57225;SDS011;43082;43.568;22.256;2022-11-21T06:04:47;7.22;;;2.90;;
57225;SDS011;43082;43.568;22.256;2022-11-21T06:07:12;9.15;;;3.80;;
57225;SDS011;43082;43.568;22.256;2022-11-21T06:09:38;9.45;;;5.10;;
57225;SDS011;43082;43.568;22.256;2022-11-21T06:12:03;8.13;;;3.92;;
57225;SDS011;43082;43.568;22.256;2022-11-21T06:14:29;7.82;;;4.60;;
57225;SDS011;43082;43.568;22.256;2022-11-21T06:16:54;8.13;;;4.43;;
57225;SDS011;43082;43.568;22.256;2022-11-21T06:19:20;8.73;;;4.88;;
57225;SDS011;43082;43.568;22.256;2022-11-21T06:21:45;10.10;;;6.22;;
57225;SDS011;43082;43.568;22.256;2022-11-21T06:24:10;7.65;;;3.70;;
57225;SDS011;43082;43.568;22.256;2022-11-21T06:26:36;11.07;;;5.50;;
57225;SDS011;43082;43.568;22.256;2022-11-21T06:29:01;12.13;;;6.20;;
57225;SDS011;43082;43.568;22.256;2022-11-21T06:31:27;11.55;;;5.63;;
57225;SDS011;43082;43.568;22.256;2022-11-21T06:33:53;10.88;;;5.78;;
57225;SDS011;43082;43.568;22.256;2022-11-21T06:36:20;15.38;;;9.70;;
57225;SDS011;43082;43.568;22.256;2022-11-21T06:38:46;21.48;;;12.10;;
57225;SDS011;43082;43.568;22.256;2022-11-21T06:43:38;7.15;;;3.25;;
57225;SDS011;43082;43.568;22.256;2022-11-21T06:46:04;11.00;;;6.00;;
57225;SDS011;43082;43.568;22.256;2022-11-21T06:48:30;12.90;;;7.40;;
57225;SDS011;43082;43.568;22.256;2022-11-21T06:50:56;8.60;;;4.32;;
57225;SDS011;43082;43.568;22.256;2022-11-21T06:53:22;12.68;;;6.95;;
57225;SDS011;43082;43.568;22.256;2022-11-21T06:55:47;16.83;;;10.60;;
57225;SDS011;43082;43.568;22.256;2022-11-21T06:58:13;15.60;;;9.45;;
57225;SDS011;43082;43.568;22.256;2022-11-21T07:00:38;12.52;;;7.63;;
57225;SDS011;43082;43.568;22.256;2022-11-21T07:03:03;14.57;;;8.43;;
57225;SDS011;43082;43.568;22.256;2022-11-21T07:05:29;17.38;;;10.07;;
57225;SDS011;43082;43.568;22.256;2022-11-21T07:07:58;38.60;;;20.65;;
57225;SDS011;43082;43.568;22.256;2022-11-21T07:10:25;19.80;;;12.18;;
57225;SDS011;43082;43.568;22.256;2022-11-21T07:12:50;20.63;;;10.15;;
57225;SDS011;43082;43.568;22.256;2022-11-21T07:15:34;11.05;;;6.95;;
57225;SDS011;43082;43.568;22.256;2022-11-21T07:18:00;15.65;;;9.05;;
57225;SDS011;43082;43.568;22.256;2022-11-21T07:20:26;11.52;;;7.00;;
57225;SDS011;43082;43.568;22.256;2022-11-21T07:22:54;13.23;;;7.18;;
57225;SDS011;43082;43.568;22.256;2022-11-21T07:25:19;8.27;;;4.55;;
57225;SDS011;43082;43.568;22.256;2022-11-21T07:27:45;10.65;;;5.72;;
57225;SDS011;43082;43.568;22.256;2022-11-21T07:30:11;13.55;;;8.02;;
57225;SDS011;43082;43.568;22.256;2022-11-21T07:32:37;12.48;;;8.13;;
57225;SDS011;43082;43.568;22.256;2022-11-21T07:35:02;10.30;;;6.65;;
57225;SDS011;43082;43.568;22.256;2022-11-21T07:37:28;11.50;;;7.82;;
57225;SDS011;43082;43.568;22.256;2022-11-21T07:39:53;8.18;;;4.78;;
57225;SDS011;43082;43.568;22.256;2022-11-21T07:42:19;13.25;;;7.68;;
57225;SDS011;43082;43.568;22.256;2022-11-21T07:44:44;12.55;;;7.65;;
57225;SDS011;43082;43.568;22.256;2022-11-21T07:47:10;16.40;;;11.48;;
57225;SDS011;43082;43.568;22.256;2022-11-21T07:49:35;11.07;;;7.10;;
57225;SDS011;43082;43.568;22.256;2022-11-21T07:52:01;12.75;;;7.90;;
57225;SDS011;43082;43.568;22.256;2022-11-21T07:54:26;9.23;;;4.65;;
57225;SDS011;43082;43.568;22.256;2022-11-21T07:56:52;13.90;;;8.50;;
57225;SDS011;43082;43.568;22.256;2022-11-21T07:59:17;10.95;;;6.88;;
57225;SDS011;43082;43.568;22.256;2022-11-21T08:01:43;10.70;;;6.40;;
57225;SDS011;43082;43.568;22.256;2022-11-21T08:04:09;8.70;;;5.72;;
57225;SDS011;43082;43.568;22.256;2022-11-21T08:06:34;12.15;;;7.22;;
57225;SDS011;43082;43.568;22.256;2022-11-21T08:08:59;11.95;;;7.20;;
57225;SDS011;43082;43.568;22.256;2022-11-21T08:11:25;12.63;;;7.82;;
57225;SDS011;43082;43.568;22.256;2022-11-21T08:13:50;9.32;;;5.97;;
57225;SDS011;43082;43.568;22.256;2022-11-21T08:16:16;9.80;;;5.95;;
57225;SDS011;43082;43.568;22.256;2022-11-21T08:18:41;10.73;;;7.13;;
57225;SDS011;43082;43.568;22.256;2022-11-21T08:21:07;9.77;;;6.18;;
57225;SDS011;43082;43.568;22.256;2022-11-21T08:23:32;12.85;;;9.77;;
57225;SDS011;43082;43.568;22.256;2022-11-21T08:25:58;11.65;;;7.55;;
57225;SDS011;43082;43.568;22.256;2022-11-21T08:28:23;10.18;;;5.68;;
57225;SDS011;43082;43.568;22.256;2022-11-21T08:30:49;8.48;;;4.10;;
57225;SDS011;43082;43.568;22.256;2022-11-21T08:33:14;9.45;;;5.72;;
57225;SDS011;43082;43.568;22.256;2022-11-21T08:35:39;21.40;;;13.70;;
57225;SDS011;43082;43.568;22.256;2022-11-21T08:38:06;9.00;;;5.00;;
57225;SDS011;43082;43.568;22.256;2022-11-21T08:40:33;10.55;;;5.45;;
57225;SDS011;43082;43.568;22.256;2022-11-21T08:43:01;7.45;;;4.45;;
57225;SDS011;43082;43.568;22.256;2022-11-21T08:45:27;7.10;;;4.10;;
57225;SDS011;43082;43.568;22.256;2022-11-21T08:47:53;6.88;;;3.53;;
57225;SDS011;43082;43.568;22.256;2022-11-21T08:50:19;6.95;;;3.58;;
57225;SDS011;43082;43.568;22.256;2022-11-21T08:52:45;9.02;;;5.50;;
57225;SDS011;43082;43.568;22.256;2022-11-21T08:55:10;7.15;;;3.95;;
57225;SDS011;43082;43.568;22.256;2022-11-21T08:57:39;13.75;;;9.77;;
57225;SDS011;43082;43.568;22.256;2022-11-21T09:00:06;8.88;;;5.53;;
57225;SDS011;43082;43.568;22.256;2022-11-21T09:02:33;14.82;;;10.50;;
57225;SDS011;43082;43.568;22.256;2022-11-21T09:04:59;12.00;;;8.50;;
57225;SDS011;43082;43.568;22.256;2022-11-21T09:07:24;15.15;;;10.73;;
57225;SDS011;43082;43.568;22.256;2022-11-21T09:09:49;14.43;;;9.70;;
57225;SDS011;43082;43.568;22.256;2022-11-21T09:12:15;8.82;;;5.32;;
57225;SDS011;43082;43.568;22.256;2022-11-21T09:14:40;10.70;;;6.53;;
57225;SDS011;43082;43.568;22.256;2022-11-21T09:17:25;10.52;;;6.78;;
57225;SDS011;43082;43.568;22.256;2022-11-21T09:20:08;13.80;;;9.50;;
57225;SDS011;43082;43.568;22.256;2022-11-21T09:22:34;19.80;;;14.40;;
57225;SDS011;43082;43.568;22.256;2022-11-21T09:24:59;16.42;;;11.70;;
57225;SDS011;43082;43.568;22.256;2022-11-21T09:27:25;9.55;;;5.70;;
57225;SDS011;43082;43.568;22.256;2022-11-21T09:29:50;9.43;;;6.15;;
57225;SDS011;43082;43.568;22.256;2022-11-21T09:32:16;8.75;;;4.93;;
57225;SDS011;43082;43.568;22.256;2022-11-21T09:34:41;10.60;;;6.57;;
57225;SDS011;43082;43.568;22.256;2022-11-21T09:37:07;13.23;;;8.10;;
57225;SDS011;43082;43.568;22.256;2022-11-21T09:39:32;10.70;;;5.82;;
57225;SDS011;43082;43.568;22.256;2022-11-21T09:42:05;8.68;;;4.60;;
57225;SDS011;43082;43.568;22.256;2022-11-21T09:47:47;6.10;;;3.40;;
57225;SDS011;43082;43.568;22.256;2022-11-21T09:55:43;14.10;;;8.48;;
57225;SDS011;43082;43.568;22.256;2022-11-21T10:01:00;12.82;;;8.48;;
57225;SDS011;43082;43.568;22.256;2022-11-21T10:03:28;10.32;;;6.57;;
57225;SDS011;43082;43.568;22.256;2022-11-21T10:05:57;13.48;;;9.18;;
57225;SDS011;43082;43.568;22.256;2022-11-21T10:11:10;11.02;;;6.75;;
57225;SDS011;43082;43.568;22.256;2022-11-21T10:13:53;7.00;;;3.95;;
57225;SDS011;43082;43.568;22.256;2022-11-21T10:21:44;9.57;;;5.45;;
57225;SDS011;43082;43.568;22.256;2022-11-21T10:27:18;14.35;;;9.07;;
57225;SDS011;43082;43.568;22.256;2022-11-21T10:30:02;16.92;;;11.45;;
57225;SDS011;43082;43.568;22.256;2022-11-21T10:32:35;20.85;;;14.38;;
57225;SDS011;43082;43.568;22.256;2022-11-21T10:35:10;19.27;;;12.57;;
57225;SDS011;43082;43.568;22.256;2022-11-21T10:38:01;11.93;;;6.93;;
57225;SDS011;43082;43.568;22.256;2022-11-21T10:43:05;11.57;;;6.97;;
57225;SDS011;43082;43.568;22.256;2022-11-21T10:46:09;10.65;;;6.18;;
57225;SDS011;43082;43.568;22.256;2022-11-21T10:48:35;9.25;;;5.28;;
57225;SDS011;43082;43.568;22.256;2022-11-21T10:51:13;10.25;;;6.57;;
57225;SDS011;43082;43.568;22.256;2022-11-21T10:54:07;12.00;;;7.88;;
57225;SDS011;43082;43.568;22.256;2022-11-21T10:56:52;10.00;;;6.15;;
57225;SDS011;43082;43.568;22.256;2022-11-21T10:59:21;9.80;;;6.28;;
57225;SDS011;43082;43.568;22.256;2022-11-21T11:01:55;7.25;;;4.25;;
57225;SDS011;43082;43.568;22.256;2022-11-21T11:04:26;13.38;;;8.27;;
57225;SDS011;43082;43.568;22.256;2022-11-21T11:06:52;10.07;;;5.72;;
57225;SDS011;43082;43.568;22.256;2022-11-21T11:11:47;10.60;;;6.82;;
57225;SDS011;43082;43.568;22.256;2022-11-21T11:14:13;12.02;;;6.95;;
57225;SDS011;43082;43.568;22.256;2022-11-21T11:16:43;13.05;;;8.60;;
57225;SDS011;43082;43.568;22.256;2022-11-21T11:31:59;16.08;;;10.80;;
57225;SDS011;43082;43.568;22.256;2022-11-21T11:45:22;16.40;;;9.32;;
57225;SDS011;43082;43.568;22.256;2022-11-21T11:48:19;16.17;;;11.07;;
57225;SDS011;43082;43.568;22.256;2022-11-21T11:50:46;16.40;;;11.45;;
57225;SDS011;43082;43.568;22.256;2022-11-21T11:53:17;19.35;;;14.18;;
57225;SDS011;43082;43.568;22.256;2022-11-21T11:58:22;15.18;;;9.07;;
57225;SDS011;43082;43.568;22.256;2022-11-21T12:00:59;16.65;;;11.05;;
57225;SDS011;43082;43.568;22.256;2022-11-21T12:03:39;12.23;;;7.80;;
57225;SDS011;43082;43.568;22.256;2022-11-21T12:06:28;15.20;;;8.95;;
57225;SDS011;43082;43.568;22.256;2022-11-21T12:08:59;12.95;;;8.25;;
57225;SDS011;43082;43.568;22.256;2022-11-21T12:17:18;9.35;;;5.25;;
57225;SDS011;43082;43.568;22.256;2022-11-21T12:19:48;10.77;;;6.10;;
57225;SDS011;43082;43.568;22.256;2022-11-21T12:22:16;13.88;;;8.68;;
57225;SDS011;43082;43.568;22.256;2022-11-21T12:24:42;16.25;;;9.90;;
57225;SDS011;43082;43.568;22.256;2022-11-21T12:27:23;20.33;;;12.73;;
57225;SDS011;43082;43.568;22.256;2022-11-21T12:32:53;17.02;;;8.75;;
57225;SDS011;43082;43.568;22.256;2022-11-21T12:40:50;11.65;;;6.80;;
57225;SDS011;43082;43.568;22.256;2022-11-21T12:43:30;10.60;;;6.60;;
57225;SDS011;43082;43.568;22.256;2022-11-21T12:57:17;11.07;;;5.70;;
57225;SDS011;43082;43.568;22.256;2022-11-21T13:05:35;20.65;;;8.98;;
57225;SDS011;43082;43.568;22.256;2022-11-21T13:08:10;14.95;;;8.23;;
57225;SDS011;43082;43.568;22.256;2022-11-21T13:10:40;16.83;;;10.68;;
57225;SDS011;43082;43.568;22.256;2022-11-21T13:13:29;10.93;;;6.40;;
57225;SDS011;43082;43.568;22.256;2022-11-21T13:18:27;48.13;;;27.10;;
57225;SDS011;43082;43.568;22.256;2022-11-21T13:20:55;47.45;;;25.50;;
57225;SDS011;43082;43.568;22.256;2022-11-21T13:23:34;10.90;;;5.68;;
57225;SDS011;43082;43.568;22.256;2022-11-21T13:28:51;18.98;;;12.10;;
57225;SDS011;43082;43.568;22.256;2022-11-21T13:31:31;22.92;;;14.43;;
57225;SDS011;43082;43.568;22.256;2022-11-21T13:33:57;19.50;;;12.77;;
57225;SDS011;43082;43.568;22.256;2022-11-21T13:44:35;10.88;;;6.80;;
57225;SDS011;43082;43.568;22.256;2022-11-21T14:05:57;16.23;;;10.88;;
57225;SDS011;43082;43.568;22.256;2022-11-21T14:08:32;21.23;;;14.55;;
57225;SDS011;43082;43.568;22.256;2022-11-21T14:10:58;23.48;;;16.98;;
57225;SDS011;43082;43.568;22.256;2022-11-21T14:13:46;26.48;;;19.25;;
57225;SDS011;43082;43.568;22.256;2022-11-21T14:19:05;23.77;;;15.80;;
57225;SDS011;43082;43.568;22.256;2022-11-21T14:21:42;30.55;;;22.35;;
57225;SDS011;43082;43.568;22.256;2022-11-21T14:24:14;22.52;;;15.55;;
57225;SDS011;43082;43.568;22.256;2022-11-21T14:26:46;21.08;;;16.35;;
57225;SDS011;43082;43.568;22.256;2022-11-21T14:31:52;25.85;;;15.30;;
57225;SDS011;43082;43.568;22.256;2022-11-21T14:34:25;26.83;;;15.77;;
57225;SDS011;43082;43.568;22.256;2022-11-21T14:36:51;25.23;;;15.27;;
57225;SDS011;43082;43.568;22.256;2022-11-21T14:39:16;18.85;;;12.48;;
57225;SDS011;43082;43.568;22.256;2022-11-21T14:41:43;22.35;;;15.80;;
57225;SDS011;43082;43.568;22.256;2022-11-21T14:44:13;26.33;;;17.08;;
57225;SDS011;43082;43.568;22.256;2022-11-21T14:46:40;29.85;;;18.08;;
57225;SDS011;43082;43.568;22.256;2022-11-21T14:51:44;31.77;;;20.88;;
57225;SDS011;43082;43.568;22.256;2022-11-21T14:56:41;40.45;;;28.42;;
57225;SDS011;43082;43.568;22.256;2022-11-21T14:59:12;32.35;;;21.60;;
57225;SDS011;43082;43.568;22.256;2022-11-21T15:01:53;43.20;;;30.63;;
57225;SDS011;43082;43.568;22.256;2022-11-21T15:04:23;46.35;;;33.75;;
57225;SDS011;43082;43.568;22.256;2022-11-21T15:06:51;69.35;;;47.90;;
57225;SDS011;43082;43.568;22.256;2022-11-21T15:09:16;22.90;;;15.98;;
57225;SDS011;43082;43.568;22.256;2022-11-21T15:11:45;20.10;;;11.45;;
57225;SDS011;43082;43.568;22.256;2022-11-21T15:17:01;45.13;;;30.58;;
57225;SDS011;43082;43.568;22.256;2022-11-21T15:19:29;41.90;;;28.48;;
57225;SDS011;43082;43.568;22.256;2022-11-21T15:21:57;62.15;;;41.40;;
57225;SDS011;43082;43.568;22.256;2022-11-21T15:24:28;47.92;;;33.88;;
57225;SDS011;43082;43.568;22.256;2022-11-21T15:27:21;32.42;;;23.25;;
57225;SDS011;43082;43.568;22.256;2022-11-21T15:46:12;26.70;;;21.88;;
57225;SDS011;43082;43.568;22.256;2022-11-21T15:48:38;49.00;;;39.38;;
57225;SDS011;43082;43.568;22.256;2022-11-21T15:51:03;46.10;;;36.55;;
57225;SDS011;43082;43.568;22.256;2022-11-21T15:53:29;45.70;;;35.30;;
57225;SDS011;43082;43.568;22.256;2022-11-21T15:55:54;47.10;;;36.10;;
57225;SDS011;43082;43.568;22.256;2022-11-21T15:58:19;48.80;;;37.30;;
57225;SDS011;43082;43.568;22.256;2022-11-21T16:00:45;46.35;;;36.63;;
57225;SDS011;43082;43.568;22.256;2022-11-21T16:03:10;40.95;;;29.85;;
57225;SDS011;43082;43.568;22.256;2022-11-21T16:05:36;23.17;;;18.13;;
57225;SDS011;43082;43.568;22.256;2022-11-21T16:08:03;26.13;;;20.42;;
57225;SDS011;43082;43.568;22.256;2022-11-21T16:10:29;35.45;;;27.52;;
57225;SDS011;43082;43.568;22.256;2022-11-21T16:12:54;35.08;;;26.92;;
57225;SDS011;43082;43.568;22.256;2022-11-21T16:15:20;38.55;;;29.58;;
57225;SDS011;43082;43.568;22.256;2022-11-21T16:17:45;44.25;;;32.47;;
57225;SDS011;43082;43.568;22.256;2022-11-21T16:20:11;42.90;;;33.03;;
57225;SDS011;43082;43.568;22.256;2022-11-21T16:22:37;44.90;;;35.42;;
57225;SDS011;43082;43.568;22.256;2022-11-21T16:25:02;52.33;;;39.75;;
57225;SDS011;43082;43.568;22.256;2022-11-21T16:27:28;60.55;;;47.03;;
57225;SDS011;43082;43.568;22.256;2022-11-21T16:29:53;62.42;;;48.17;;
57225;SDS011;43082;43.568;22.256;2022-11-21T16:32:19;59.63;;;45.53;;
57225;SDS011;43082;43.568;22.256;2022-11-21T16:34:44;57.67;;;44.03;;
57225;SDS011;43082;43.568;22.256;2022-11-21T16:37:09;48.05;;;36.90;;
57225;SDS011;43082;43.568;22.256;2022-11-21T16:39:35;103.50;;;76.88;;
57225;SDS011;43082;43.568;22.256;2022-11-21T16:42:00;84.88;;;62.58;;
57225;SDS011;43082;43.568;22.256;2022-11-21T16:44:28;85.50;;;63.00;;
57225;SDS011;43082;43.568;22.256;2022-11-21T16:46:53;86.03;;;62.00;;
57225;SDS011;43082;43.568;22.256;2022-11-21T16:49:19;95.65;;;70.63;;
57225;SDS011;43082;43.568;22.256;2022-11-21T16:51:45;118.95;;;83.18;;
57225;SDS011;43082;43.568;22.256;2022-11-21T16:54:10;99.60;;;69.72;;
57225;SDS011;43082;43.568;22.256;2022-11-21T16:56:36;70.50;;;52.70;;
57225;SDS011;43082;43.568;22.256;2022-11-21T16:59:01;128.15;;;81.85;;
57225;SDS011;43082;43.568;22.256;2022-11-21T17:01:27;122.95;;;80.53;;
57225;SDS011;43082;43.568;22.256;2022-11-21T17:03:52;77.78;;;52.55;;
57225;SDS011;43082;43.568;22.256;2022-11-21T17:06:19;45.17;;;31.63;;
57225;SDS011;43082;43.568;22.256;2022-11-21T17:08:46;53.53;;;38.50;;
57225;SDS011;43082;43.568;22.256;2022-11-21T17:11:16;39.60;;;28.35;;